ADDS METAR Data INFO
IDs: Format: Raw Decoded Include TAF

Data at: 0142 UTC 20 Feb 2018

KAZC 200135Z AUTO 26010KT 10SM CLR 00/M17 A2968 RMK AO2
KAZC 200115Z AUTO 28010G16KT 10SM CLR 01/M16 A2967 RMK AO2
KAZC 200055Z AUTO 28011KT 10SM SCT085 02/M16 A2966 RMK AO2
KAZC 200035Z AUTO 28011KT 10SM SCT085 02/M15 A2966 RMK AO2
KAZC 200015Z AUTO 27011KT 10SM SCT055 SCT070 02/M13 A2964 RMK AO2
KAZC 192355Z AUTO 28010G16KT 10SM SCT060 SCT075 01/M12 A2964 RMK AO2
KAZC 192335Z AUTO 33005G15KT 10SM CLR 01/M09 A2964 RMK AO2
KAZC 192315Z AUTO 27012G18KT 10SM SCT110 02/M10 A2962 RMK AO2
KAZC 192255Z AUTO 27010G18KT 10SM SCT042 SCT050 BKN110 02/M08 A2962 RMK AO2
KAZC 192235Z AUTO 26008KT 10SM SCT040 SCT060 SCT075 01/M06 A2962 RMK AO2
KAZC 192215Z AUTO 26005KT 10SM SCT025 SCT037 BKN060 01/M05 A2962 RMK AO2
KAZC 192155Z AUTO 28009G14KT 10SM SCT029 SCT043 BKN065 01/M05 A2962 RMK AO2
KAZC 192135Z AUTO 26005KT 10SM SCT029 BKN060 BKN075 01/M03 A2960 RMK AO2
KAZC 192115Z AUTO 27007KT 10SM BKN055 OVC070 01/M03 A2961 RMK AO2
KAZC 192055Z AUTO 26008KT 10SM SCT050 BKN055 OVC070 00/M02 A2961 RMK AO2
KAZC 192035Z AUTO 25007KT 10SM SCT029 SCT037 OVC055 00/M03 A2962 RMK AO2
KAZC 192015Z AUTO 26006KT 10SM -SN SCT010 BKN027 OVC044 00/M03 A2962 RMK AO2
KAZC 191955Z AUTO 29011G23KT 1/2SM SN OVC008 M01/M02 A2962 RMK AO2
KAZC 191935Z AUTO 29015KT M1/4SM +SN OVC008 M01/M02 A2962 RMK AO2
KAZC 191915Z AUTO 25016G21KT 7SM -SN SCT015 BKN050 02/M02 A2960 RMK AO2
KAZC 191855Z AUTO 28011G19KT 10SM -SN SCT009 SCT014 BKN055 01/M03 A2960 RMK AO2
KAZC 191835Z AUTO 26013G20KT 3SM -VCTSSN BKN013 BKN029 OVC060 01/M02 A2960 RMK AO2
KAZC 191815Z AUTO 29017KT 7SM -SN BKN015 OVC029 01/M02 A2959 RMK AO2
KAZC 191755Z AUTO 29014KT 10SM BKN015 OVC022 02/M02 A2958 RMK AO2
KAZC 191735Z AUTO 31007KT 10SM BKN015 OVC020 01/M02 A2958 RMK AO2
KAZC 191715Z AUTO 27008G15KT 10SM BKN015 BKN024 OVC033 01/M02 A2959 RMK AO2
KAZC 191655Z AUTO 30013G22KT 10SM SCT018 BKN026 BKN030 02/M02 A2957 RMK AO2
KAZC 191635Z AUTO 29014G17KT 10SM SCT018 SCT026 02/M02 A2957 RMK AO2
KAZC 191615Z AUTO 28011KT 10SM SCT020 SCT028 02/M02 A2958 RMK AO2
KAZC 191555Z AUTO 29011G18KT 10SM CLR 01/M02 A2958 RMK AO2
KAZC 191535Z AUTO 28013G17KT 10SM CLR 01/M02 A2957 RMK AO2
KAZC 191515Z AUTO 30009KT 10SM SCT048 01/M02 A2957 RMK AO2
KAZC 191455Z AUTO 25014G20KT 10SM SCT048 02/M05 A2955 RMK AO2
KAZC 191435Z AUTO 25020G31KT 10SM CLR 02/M06 A2955 RMK AO2
KAZC 191415Z AUTO 23017G29KT 10SM CLR 03/M06 A2954 RMK AO2
KAZC 191355Z AUTO 23019G24KT 10SM CLR 03/M06 A2953 RMK AO2
KAZC 191335Z AUTO 22023G32KT 10SM CLR 04/M06 A2952 RMK AO2
KAZC 191315Z AUTO 23026G34KT 10SM CLR 04/M05 A2952 RMK AO2
KAZC 191255Z AUTO 24019G28KT 10SM SCT048 SCT055 SCT070 05/M03 A2951 RMK AO2
KAZC 191235Z AUTO 23013G18KT 10SM BKN046 BKN055 05/M02 A2950 RMK AO2
KAZC 191215Z AUTO 23013G18KT 10SM SCT050 SCT065 05/M02 A2949 RMK AO2
KAZC 191155Z AUTO 22010G20KT 10SM CLR 05/M03 A2950 RMK AO2
KAZC 191135Z AUTO 22018G25KT 10SM CLR 06/M04 A2950 RMK AO2
KAZC 191115Z AUTO 22009G20KT 10SM CLR 06/M04 A2951 RMK AO2
KAZC 191055Z AUTO 22013G22KT 10SM CLR 06/M02 A2952 RMK AO2
KAZC 191035Z AUTO 23015G23KT 10SM CLR 07/M02 A2952 RMK AO2
KAZC 191015Z AUTO 23011G18KT 10SM CLR 06/M02 A2952 RMK AO2
KAZC 190955Z AUTO 22015G21KT 10SM CLR 07/M02 A2951 RMK AO2
KAZC 190935Z AUTO 22010G18KT 10SM CLR 07/M02 A2951 RMK AO2
KAZC 190915Z AUTO 20014G21KT 10SM CLR 07/M01 A2950 RMK AO2
KAZC 190855Z AUTO 20017G22KT 10SM CLR 07/M01 A2950 RMK AO2
KAZC 190835Z AUTO 21016G23KT 10SM CLR 07/M01 A2952 RMK AO2
KAZC 190815Z AUTO 20017G26KT 10SM CLR 08/M01 A2952 RMK AO2
KAZC 190755Z AUTO 21018G25KT 10SM CLR 08/M01 A2953 RMK AO2
KAZC 190735Z AUTO 22013G18KT 10SM SCT055 07/M01 A2955 RMK AO2
KAZC 190715Z AUTO 16005G09KT 10SM OVC055 08/00 A2956 RMK AO2
KAZC 190655Z AUTO 14007KT 10SM OVC060 08/00 A2957 RMK AO2
KAZC 190635Z AUTO 16008KT 10SM OVC060 08/00 A2959 RMK AO2
KAZC 190615Z AUTO 15007KT 10SM SCT060 OVC070 08/00 A2959 RMK AO2
KAZC 190555Z AUTO 16009KT 10SM BKN060 BKN070 08/00 A2960 RMK AO2
KAZC 190535Z AUTO 16004KT 10SM BKN060 BKN070 07/00 A2961 RMK AO2
KAZC 190515Z AUTO 11004KT 10SM OVC070 08/M01 A2961 RMK AO2
KAZC 190455Z AUTO 14005KT 10SM BKN070 08/M02 A2963 RMK AO2
KAZC 190435Z AUTO 19010KT 10SM SCT070 08/M02 A2963 RMK AO2
KAZC 190415Z AUTO 19010G17KT 10SM SCT070 08/M02 A2963 RMK AO2
KAZC 190355Z AUTO 12007KT 10SM CLR 07/M03 A2964 RMK AO2
KAZC 190335Z AUTO 13007KT 10SM SCT080 07/M03 A2965 RMK AO2
KAZC 190315Z AUTO 13006KT 10SM 08/M03 A2966 RMK AO2
KAZC 190255Z AUTO 15007KT 10SM 08/M03 A2966 RMK AO2
KAZC 190235Z AUTO 16006KT 10SM 07/M03 A2967 RMK AO2
KAZC 190215Z AUTO 16007KT 10SM 09/M03 A2968 RMK AO2
KAZC 190155Z AUTO 18004KT 10SM 09/M03 A2968 RMK AO2
KAZC 190135Z AUTO 20005KT 10SM 11/M04 A2969 RMK AO2
KAZC 190115Z AUTO 20010KT 10SM 12/M04 A2969 RMK AO2
KAZC 190055Z AUTO 20007KT 10SM 12/M03 A2968 RMK AO2
KAZC 190035Z AUTO 20011G18KT 10SM 13/M03 A2968 RMK AO2
KAZC 190015Z AUTO 21012G20KT 10SM 14/M03 A2969 RMK AO2
KAZC 182355Z AUTO 22009G15KT 10SM 15/M05 A2970 RMK AO2
KAZC 182335Z AUTO 24014G19KT 10SM 15/M05 A2971 RMK AO2
KAZC 182315Z AUTO 24013G18KT 10SM 15/M05 A2971 RMK AO2
KAZC 182255Z AUTO 24014G21KT 210V270 10SM 15/M05 A2972 RMK AO2
KAZC 182235Z AUTO 23015G19KT 10SM 15/M05 A2973 RMK AO2
KAZC 182215Z AUTO 23017G21KT 10SM 16/M05 A2974 RMK AO2
KAZC 182155Z AUTO 24013G17KT 10SM 16/M04 A2975 RMK AO2
KAZC 182135Z AUTO 26012G22KT 10SM 15/M05 A2976 RMK AO2
KAZC 182115Z AUTO 24019KT 10SM 15/M05 A2977 RMK AO2
KAZC 182055Z AUTO 27013G21KT 10SM 15/M05 A2979 RMK AO2
KAZC 182035Z AUTO 25014G23KT 220V280 10SM 15/M05 A2979 RMK AO2
KAZC 182015Z AUTO 25013G23KT 10SM 15/M05 A2981 RMK AO2
KAZC 181955Z AUTO 27015G21KT 10SM 15/M05 A2982 RMK AO2
KAZC 181935Z AUTO 22006G18KT 200V260 10SM 14/M02 A2983 RMK AO2
KAZC 181915Z AUTO 23009G15KT 10SM 13/M01 A2985 RMK AO2
KAZC 181855Z AUTO 24006KT 10SM 12/M02 A2986 RMK AO2
KAZC 181835Z AUTO 20005KT 10SM 12/M01 A2987 RMK AO2
KAZC 181815Z AUTO 17004KT 10SM 11/M01 A2988 RMK AO2
KAZC 181755Z AUTO 23004KT 10SM CLR 11/M01 A2990 RMK AO2
KAZC 181735Z AUTO 07004KT 10SM CLR 10/00 A2990 RMK AO2
KAZC 181715Z AUTO 11005KT 10SM CLR 10/00 A2990 RMK AO2
KAZC 181655Z AUTO 13005KT 10SM CLR 09/00 A2991 RMK AO2
KAZC 181635Z AUTO 13006KT 10SM CLR 08/00 A2992 RMK AO2
KAZC 181615Z AUTO 12005KT 10SM CLR 07/01 A2993 RMK AO2
KAZC 181555Z AUTO 11004KT 10SM CLR 05/01 A2993 RMK AO2
KAZC 181535Z AUTO 00000KT 10SM CLR 00/M01 A2993 RMK AO2
KAZC 181515Z AUTO 00000KT 10SM CLR 00/M02 A2993 RMK AO2
KAZC 181455Z AUTO 00000KT 10SM CLR M02/M03 A2993 RMK AO2
KAZC 181435Z AUTO 00000KT 10SM CLR M05/M06 A2994 RMK AO2
KAZC 181415Z AUTO 00000KT 10SM CLR M03/M04 A2994 RMK AO2
KAZC 181355Z AUTO 00000KT 10SM CLR M02/M04 A2995 RMK AO2